createdAt,value
2022-12-14T00:01:41.564Z,73.88
2022-12-14T00:04:12.034Z,74.36
2022-12-14T00:06:39.094Z,74.28
2022-12-14T00:09:06.146Z,74.33
2022-12-14T00:11:34.287Z,74.26
2022-12-14T00:14:03.767Z,74.13
2022-12-14T00:16:34.162Z,74.36
2022-12-14T00:19:02.315Z,74.09
2022-12-14T00:21:29.904Z,74.37
2022-12-14T00:23:59.471Z,74.54
2022-12-14T00:26:32.277Z,74.24
2022-12-14T00:29:01.858Z,74.63
2022-12-14T00:31:31.236Z,74.67
2022-12-14T00:33:58.382Z,74.62
2022-12-14T00:36:25.659Z,74.57
2022-12-14T00:38:52.624Z,74.75
2022-12-14T00:41:19.862Z,74.87
2022-12-14T00:43:49.214Z,74.68
2022-12-14T00:46:17.297Z,74.75
2022-12-14T00:48:44.440Z,74.88
2022-12-14T00:51:11.442Z,74.91
2022-12-14T00:53:38.368Z,74.97
2022-12-14T00:56:07.890Z,74.75
2022-12-14T00:58:35.488Z,75.13
2022-12-14T01:01:07.547Z,75.13
2022-12-14T01:03:34.821Z,75.08
2022-12-14T01:06:02.204Z,75.57
2022-12-14T01:08:35.512Z,75.51
2022-12-14T01:11:08.595Z,75.44
2022-12-14T01:13:37.686Z,75.49
2022-12-14T01:16:12.878Z,75.26
2022-12-14T01:18:42.283Z,75.36
2022-12-14T01:21:18.996Z,75.47
2022-12-14T01:23:47.746Z,75.62
2022-12-14T01:26:17.150Z,75.20
2022-12-14T01:28:45.792Z,75.22
2022-12-14T01:31:18.723Z,75.33
2022-12-14T01:33:47.530Z,75.53
2022-12-14T01:36:21.562Z,75.65
2022-12-14T01:38:52.453Z,75.33
2022-12-14T01:41:52.170Z,75.80
2022-12-14T01:44:19.029Z,75.71
2022-12-14T01:47:20.416Z,75.32
2022-12-14T01:49:58.623Z,75.61
2022-12-14T01:52:44.094Z,75.70
2022-12-14T01:55:20.962Z,75.53
2022-12-14T01:58:19.286Z,75.62
2022-12-14T02:00:46.390Z,75.62
2022-12-14T02:03:24.102Z,75.86
2022-12-14T02:06:02.113Z,75.85
2022-12-14T02:08:30.136Z,75.87
2022-12-14T02:10:57.870Z,76.04
2022-12-14T02:13:35.476Z,75.98
2022-12-14T02:16:02.848Z,75.82
2022-12-14T02:18:32.441Z,75.67
2022-12-14T02:21:22.854Z,75.90
2022-12-14T02:23:58.578Z,75.67
2022-12-14T02:27:07.086Z,75.76
2022-12-14T02:30:00.613Z,75.83
2022-12-14T02:33:08.317Z,75.67
2022-12-14T02:36:15.691Z,76.02
2022-12-14T02:38:56.623Z,76.15
2022-12-14T02:42:00.479Z,76.14
2022-12-14T02:45:10.916Z,76.39
2022-12-14T02:47:59.775Z,76.16
2022-12-14T02:51:10.161Z,76.13
2022-12-14T02:53:54.021Z,76.20
2022-12-14T02:56:31.766Z,76.44
2022-12-14T02:58:59.447Z,76.07
2022-12-14T03:01:29.380Z,76.47
2022-12-14T03:03:56.557Z,76.61
2022-12-14T03:06:28.254Z,76.10
2022-12-14T03:09:08.757Z,76.26
2022-12-14T03:11:52.699Z,76.14
2022-12-14T03:14:45.948Z,76.39
2022-12-14T03:17:23.631Z,76.25
2022-12-14T03:20:00.918Z,76.71
2022-12-14T03:22:48.013Z,76.59
2022-12-14T03:25:22.178Z,76.51
2022-12-14T03:28:11.990Z,76.54
2022-12-14T03:31:00.309Z,76.64
2022-12-14T03:33:31.299Z,77.06
2022-12-14T03:36:02.334Z,76.97
2022-12-14T03:38:45.547Z,77.16
2022-12-14T03:41:27.199Z,76.79
2022-12-14T03:44:25.890Z,77.37
2022-12-14T03:47:28.829Z,77.27
2022-12-14T03:50:17.031Z,76.82
2022-12-14T03:52:52.858Z,76.99
2022-12-14T03:55:40.934Z,76.69
2022-12-14T03:58:38.392Z,76.85
2022-12-14T04:01:21.349Z,76.70
2022-12-14T04:04:14.989Z,76.50
2022-12-14T04:07:03.517Z,76.46
2022-12-14T04:09:56.533Z,76.07
2022-12-14T04:12:59.009Z,75.92
2022-12-14T04:15:50.945Z,75.40
2022-12-14T04:18:57.463Z,75.50
2022-12-14T04:21:32.875Z,75.41
2022-12-14T04:24:28.273Z,75.45
2022-12-14T04:27:11.296Z,74.73
2022-12-14T04:29:56.683Z,74.63
2022-12-14T04:32:53.370Z,73.81
2022-12-14T04:35:42.083Z,74.00
2022-12-14T04:38:19.179Z,74.75
2022-12-14T04:41:02.714Z,74.47
2022-12-14T04:43:34.891Z,74.21
2022-12-14T04:46:21.496Z,73.18
2022-12-14T04:49:42.663Z,73.58
2022-12-14T04:52:24.313Z,73.04
2022-12-14T04:55:07.040Z,72.86
2022-12-14T04:57:53.404Z,73.56
2022-12-14T05:00:20.578Z,73.01
2022-12-14T05:03:12.347Z,72.45
2022-12-14T05:06:06.262Z,72.67
2022-12-14T05:09:02.558Z,72.60
2022-12-14T05:11:56.282Z,73.15
2022-12-14T05:14:43.895Z,72.84
2022-12-14T05:17:11.546Z,72.05
2022-12-14T05:19:48.756Z,72.44
2022-12-14T05:22:17.253Z,72.28
2022-12-14T05:24:44.481Z,72.71
2022-12-14T05:27:11.470Z,72.84
2022-12-14T05:29:38.520Z,72.88
2022-12-14T05:32:05.642Z,72.97
2022-12-14T05:34:32.863Z,72.63
2022-12-14T05:36:59.854Z,72.57
2022-12-14T05:39:26.832Z,72.27
2022-12-14T05:41:53.821Z,72.39
2022-12-14T05:44:21.530Z,72.50
2022-12-14T05:46:48.762Z,72.44
2022-12-14T05:49:15.826Z,72.53
2022-12-14T05:51:42.790Z,73.05
2022-12-14T05:54:09.766Z,72.75
2022-12-14T05:56:36.937Z,73.38
2022-12-14T05:59:03.891Z,72.98
2022-12-14T06:01:30.940Z,73.52
2022-12-14T06:03:57.999Z,73.51
2022-12-14T06:06:25.113Z,73.28
2022-12-14T06:08:52.168Z,73.34
2022-12-14T06:11:22.389Z,73.51
2022-12-14T06:13:50.101Z,72.74
2022-12-14T06:16:24.023Z,73.23
2022-12-14T06:18:57.951Z,73.39
2022-12-14T06:21:34.311Z,73.69
2022-12-14T06:24:02.708Z,73.64
2022-12-14T06:26:32.782Z,73.91
2022-12-14T06:29:00.277Z,73.56
2022-12-14T06:31:30.953Z,73.93
2022-12-14T06:34:03.430Z,73.58
2022-12-14T06:36:32.794Z,73.30
2022-12-14T06:39:08.633Z,73.54
2022-12-14T06:41:36.005Z,73.55
2022-12-14T06:44:08.314Z,73.46
2022-12-14T06:46:36.542Z,73.48
2022-12-14T06:49:04.981Z,74.22
2022-12-14T06:51:32.254Z,74.06
2022-12-14T06:53:59.301Z,73.68
2022-12-14T06:56:28.146Z,73.58
2022-12-14T06:58:56.785Z,73.18
2022-12-14T07:01:25.572Z,72.62
2022-12-14T07:03:58.397Z,72.89
2022-12-14T07:06:27.796Z,72.65
2022-12-14T07:08:59.720Z,72.54
2022-12-14T07:11:29.023Z,71.93
2022-12-14T07:13:56.637Z,71.91
2022-12-14T07:16:26.711Z,71.89
2022-12-14T07:18:55.291Z,72.08
2022-12-14T07:21:23.612Z,71.99
2022-12-14T07:23:52.448Z,71.53
2022-12-14T07:26:26.583Z,71.40
2022-12-14T07:28:54.690Z,71.04
2022-12-14T07:31:27.360Z,71.04
2022-12-14T07:33:59.883Z,70.98
2022-12-14T07:36:29.490Z,70.97
2022-12-14T07:38:57.187Z,70.97
2022-12-14T07:41:30.496Z,70.87
2022-12-14T07:44:00.695Z,70.08
2022-12-14T07:46:30.016Z,68.25
2022-12-14T07:48:59.205Z,67.08
2022-12-14T07:51:32.299Z,66.66
2022-12-14T07:54:00.458Z,65.38
2022-12-14T07:56:38.115Z,64.83
2022-12-14T07:59:08.370Z,63.57
2022-12-14T08:01:37.138Z,62.80
2022-12-14T08:04:11.783Z,62.02
2022-12-14T08:06:40.144Z,60.88
2022-12-14T08:09:09.051Z,59.62
2022-12-14T08:11:36.821Z,58.73
2022-12-14T08:14:08.166Z,58.05
2022-12-14T08:16:35.219Z,56.97
2022-12-14T08:19:02.274Z,57.10
2022-12-14T08:21:30.350Z,56.50
2022-12-14T08:23:58.007Z,55.44
2022-12-14T08:26:31.612Z,54.15
2022-12-14T08:29:00.538Z,53.77
2022-12-14T08:31:30.654Z,51.92
2022-12-14T08:34:00.451Z,51.74
2022-12-14T08:36:32.745Z,50.68
2022-12-14T08:39:06.825Z,49.95
2022-12-14T08:41:34.422Z,48.72
2022-12-14T08:44:03.950Z,47.67
2022-12-14T08:46:33.532Z,46.96
2022-12-14T08:49:01.322Z,46.02
2022-12-14T08:51:29.143Z,45.10
2022-12-14T08:53:57.414Z,44.65
2022-12-14T08:56:27.429Z,44.40
2022-12-14T08:58:55.394Z,43.50
2022-12-14T09:01:32.254Z,43.08
2022-12-14T09:04:06.660Z,42.70
2022-12-14T09:06:37.980Z,42.55
2022-12-14T09:09:13.339Z,40.81
2022-12-14T09:11:43.965Z,40.44
2022-12-14T09:14:10.942Z,40.50
2022-12-14T09:16:38.066Z,39.74
2022-12-14T09:19:05.095Z,40.13
2022-12-14T09:21:32.212Z,38.93
2022-12-14T09:24:00.019Z,37.23
2022-12-14T09:26:29.834Z,36.40
2022-12-14T09:28:58.141Z,36.15
2022-12-14T09:31:27.779Z,36.66
2022-12-14T09:33:55.310Z,36.04
2022-12-14T09:36:26.885Z,36.40
2022-12-14T09:38:56.662Z,36.14
2022-12-14T09:41:35.546Z,35.71
2022-12-14T09:44:18.762Z,35.84
2022-12-14T09:47:10.806Z,35.05
2022-12-14T09:49:41.838Z,35.36
2022-12-14T09:52:23.891Z,36.37
2022-12-14T09:54:52.463Z,35.60
2022-12-14T09:57:38.073Z,35.65
2022-12-14T10:00:18.092Z,35.75
2022-12-14T10:03:25.172Z,35.75
2022-12-14T10:06:31.487Z,35.48
2022-12-14T10:09:41.344Z,35.87
2022-12-14T10:12:34.100Z,36.52
2022-12-14T10:15:25.366Z,35.76
2022-12-14T10:18:01.350Z,34.76
2022-12-14T10:20:35.830Z,34.31
2022-12-14T10:23:03.956Z,35.15
2022-12-14T10:25:37.231Z,35.19
2022-12-14T10:28:16.540Z,36.12
2022-12-14T10:30:44.784Z,36.84
2022-12-14T10:33:28.006Z,37.03
2022-12-14T10:35:56.215Z,36.17
2022-12-14T10:38:44.762Z,35.74
2022-12-14T10:41:28.301Z,34.89
2022-12-14T10:44:30.538Z,34.71
2022-12-14T10:47:05.122Z,34.20
2022-12-14T10:49:47.211Z,34.06
2022-12-14T10:52:22.682Z,33.27
2022-12-14T10:55:11.135Z,33.45
2022-12-14T10:57:38.102Z,33.55
2022-12-14T11:00:23.071Z,33.89
2022-12-14T11:02:56.038Z,33.51
2022-12-14T11:06:02.743Z,33.38
2022-12-14T11:08:49.490Z,34.09
2022-12-14T11:11:24.795Z,34.22
2022-12-14T11:14:17.671Z,34.34
2022-12-14T11:16:44.708Z,34.43
2022-12-14T11:19:22.057Z,34.52
2022-12-14T11:21:51.341Z,34.36
2022-12-14T11:24:27.787Z,34.93
2022-12-14T11:27:01.099Z,34.87
2022-12-14T11:29:39.491Z,34.74
2022-12-14T11:32:07.175Z,35.29
2022-12-14T11:34:42.345Z,35.45
2022-12-14T11:37:23.118Z,35.16
2022-12-14T11:39:54.382Z,35.99
2022-12-14T11:42:22.611Z,35.84
2022-12-14T11:44:51.829Z,36.22
2022-12-14T11:47:25.731Z,36.51
2022-12-14T11:49:57.918Z,36.96
2022-12-14T11:52:38.192Z,36.85
2022-12-14T11:55:13.375Z,37.33
2022-12-14T11:57:57.331Z,36.98
2022-12-14T12:00:47.732Z,37.69
2022-12-14T12:03:19.622Z,37.95
2022-12-14T12:05:47.789Z,38.20
2022-12-14T12:08:26.755Z,38.80
2022-12-14T12:11:02.368Z,39.36
2022-12-14T12:13:35.429Z,40.20
2022-12-14T12:16:06.525Z,40.69
2022-12-14T12:18:54.284Z,40.15
2022-12-14T12:21:32.087Z,41.20
2022-12-14T12:24:15.623Z,41.49
2022-12-14T12:27:02.819Z,41.69
2022-12-14T12:29:52.930Z,43.01
2022-12-14T12:32:59.097Z,43.11
2022-12-14T12:35:56.454Z,43.73
2022-12-14T12:38:32.744Z,44.42
2022-12-14T12:41:06.197Z,44.56
2022-12-14T12:43:43.620Z,45.63
2022-12-14T12:47:25.438Z,46.08
2022-12-14T12:50:09.759Z,46.42
2022-12-14T12:53:02.764Z,46.85
2022-12-14T12:55:42.421Z,46.99
2022-12-14T12:58:21.116Z,47.22
2022-12-14T13:00:51.659Z,47.83
2022-12-14T13:03:37.478Z,48.45
2022-12-14T13:06:25.062Z,48.38
2022-12-14T13:09:10.055Z,48.82
2022-12-14T13:11:40.035Z,49.03
2022-12-14T13:14:12.980Z,49.98
2022-12-14T13:16:42.134Z,49.85
2022-12-14T13:19:52.440Z,51.14
2022-12-14T13:22:31.811Z,51.50
2022-12-14T13:25:14.262Z,51.82
2022-12-14T13:28:08.311Z,52.42
2022-12-14T13:31:30.165Z,52.57
2022-12-14T13:34:22.441Z,53.33
2022-12-14T13:37:16.791Z,54.07
2022-12-14T13:40:21.356Z,53.55
2022-12-14T13:43:05.893Z,54.66
2022-12-14T13:45:49.811Z,54.73
2022-12-14T13:48:34.130Z,55.27
2022-12-14T13:51:05.533Z,55.49
2022-12-14T13:53:42.262Z,55.70
2022-12-14T13:56:17.946Z,55.52
2022-12-14T13:58:48.775Z,56.32
2022-12-14T14:01:41.920Z,56.22
2022-12-14T14:04:14.634Z,55.97
2022-12-14T14:06:45.716Z,56.14
2022-12-14T14:09:31.341Z,56.91
2022-12-14T14:12:25.133Z,57.07
2022-12-14T14:15:08.803Z,57.36
2022-12-14T14:17:49.369Z,57.24
2022-12-14T14:20:39.085Z,57.53
2022-12-14T14:23:15.943Z,58.20
2022-12-14T14:25:48.889Z,58.57
2022-12-14T14:28:22.656Z,58.78
2022-12-14T14:30:54.226Z,58.84
2022-12-14T14:33:46.147Z,58.67
2022-12-14T14:36:33.872Z,59.02
2022-12-14T14:39:38.288Z,59.25
2022-12-14T14:41:55.705Z,59.82
2022-12-14T14:44:36.968Z,60.03
2022-12-14T14:47:37.407Z,60.39
2022-12-14T14:50:16.269Z,61.07
2022-12-14T14:52:43.119Z,60.98
2022-12-14T14:55:52.001Z,60.35
2022-12-14T14:58:28.363Z,60.98
2022-12-14T15:01:24.714Z,61.30
2022-12-14T15:04:23.664Z,60.85
2022-12-14T15:07:02.140Z,61.46
2022-12-14T15:09:39.289Z,62.10
2022-12-14T15:12:43.027Z,63.00
2022-12-14T15:15:32.573Z,63.38
2022-12-14T15:18:31.981Z,63.54
2022-12-14T15:21:11.147Z,64.32
2022-12-14T15:23:52.074Z,64.59
2022-12-14T15:26:27.332Z,64.44
2022-12-14T15:29:00.808Z,65.42
2022-12-14T15:31:42.096Z,66.24
2022-12-14T15:34:17.246Z,65.65
2022-12-14T15:36:45.001Z,64.99
2022-12-14T15:39:32.060Z,64.83
2022-12-14T15:42:10.950Z,65.38
2022-12-14T15:44:43.712Z,65.01
2022-12-14T15:47:29.880Z,65.20
2022-12-14T15:50:15.589Z,65.02
2022-12-14T15:52:44.060Z,64.78
2022-12-14T15:55:31.410Z,64.73
2022-12-14T15:58:20.217Z,65.08
2022-12-14T16:00:54.283Z,65.56
2022-12-14T16:03:44.288Z,65.82
2022-12-14T16:06:13.891Z,65.58
2022-12-14T16:08:53.489Z,65.28
2022-12-14T16:11:28.228Z,65.84
2022-12-14T16:13:59.056Z,66.21
2022-12-14T16:16:26.313Z,65.60
2022-12-14T16:18:53.550Z,65.90
2022-12-14T16:21:32.788Z,65.98
2022-12-14T16:24:12.835Z,66.22
2022-12-14T16:26:40.336Z,65.92
2022-12-14T16:29:32.009Z,66.59
2022-12-14T16:32:14.730Z,65.87
2022-12-14T16:34:58.964Z,66.35
2022-12-14T16:37:34.586Z,66.40
2022-12-14T16:40:01.886Z,66.38
2022-12-14T16:42:32.439Z,66.04
2022-12-14T16:44:59.445Z,66.14
2022-12-14T16:47:35.480Z,66.51
2022-12-14T16:50:02.883Z,66.21
2022-12-14T16:52:36.463Z,66.28
2022-12-14T16:55:12.054Z,66.22
2022-12-14T16:57:49.619Z,66.11
2022-12-14T17:00:30.715Z,66.30
2022-12-14T17:03:04.846Z,66.02
2022-12-14T17:05:39.889Z,66.49
2022-12-14T17:08:08.228Z,65.97
2022-12-14T17:10:36.162Z,66.47
2022-12-14T17:13:03.979Z,66.30
2022-12-14T17:15:34.991Z,67.15
2022-12-14T17:18:05.698Z,66.88
2022-12-14T17:20:37.400Z,67.35
2022-12-14T17:23:08.631Z,67.78
2022-12-14T17:25:36.810Z,67.71
2022-12-14T17:28:04.785Z,67.13
2022-12-14T17:30:34.002Z,67.41
2022-12-14T17:33:01.156Z,67.40
2022-12-14T17:35:33.579Z,67.17
2022-12-14T17:38:00.629Z,67.31
2022-12-14T17:40:28.235Z,67.09
2022-12-14T17:42:58.501Z,66.91
2022-12-14T17:45:30.093Z,66.96
2022-12-14T17:47:57.965Z,67.09
2022-12-14T17:50:26.113Z,67.17
2022-12-14T17:52:53.883Z,67.46
2022-12-14T17:55:26.489Z,67.47
2022-12-14T17:57:54.767Z,67.07
2022-12-14T18:00:47.667Z,67.25
2022-12-14T18:03:17.037Z,67.95
2022-12-14T18:05:49.783Z,67.26
2022-12-14T18:08:19.883Z,67.71
2022-12-14T18:10:50.108Z,67.96
2022-12-14T18:13:17.272Z,67.59
2022-12-14T18:15:49.809Z,68.12
2022-12-14T18:18:23.092Z,67.70
2022-12-14T18:20:56.091Z,67.96
2022-12-14T18:23:23.452Z,67.98
2022-12-14T18:25:58.583Z,67.73
2022-12-14T18:28:25.894Z,67.90
2022-12-14T18:30:57.555Z,67.84
2022-12-14T18:33:27.293Z,68.04
2022-12-14T18:35:56.710Z,67.88
2022-12-14T18:38:24.368Z,67.36
2022-12-14T18:40:55.156Z,67.64
2022-12-14T18:43:25.530Z,68.71
2022-12-14T18:45:54.241Z,68.31
2022-12-14T18:48:23.305Z,68.14
2022-12-14T18:50:52.730Z,68.58
2022-12-14T18:53:22.956Z,68.80
2022-12-14T18:55:50.696Z,69.53
2022-12-14T18:58:22.058Z,70.25
2022-12-14T19:00:51.749Z,69.64
2022-12-14T19:03:19.824Z,69.78
2022-12-14T19:05:47.290Z,69.87
2022-12-14T19:08:15.161Z,69.53
2022-12-14T19:10:47.009Z,70.06
2022-12-14T19:13:25.860Z,69.48
2022-12-14T19:15:54.670Z,69.38
2022-12-14T19:18:22.344Z,69.06
2022-12-14T19:20:49.968Z,68.50
2022-12-14T19:23:19.439Z,69.37
2022-12-14T19:25:47.179Z,69.39
2022-12-14T19:28:31.497Z,69.23
2022-12-14T19:31:00.565Z,69.04
2022-12-14T19:33:28.922Z,69.98
2022-12-14T19:35:56.631Z,69.21
2022-12-14T19:38:23.633Z,68.96
2022-12-14T19:41:00.831Z,69.94
2022-12-14T19:43:30.169Z,69.97
2022-12-14T19:45:57.717Z,70.34
2022-12-14T19:48:24.716Z,69.80
2022-12-14T19:50:51.916Z,70.15
2022-12-14T19:53:23.746Z,69.86
2022-12-14T19:55:54.073Z,69.75
2022-12-14T19:58:25.520Z,69.47
2022-12-14T20:00:52.914Z,70.33
2022-12-14T20:03:20.869Z,69.92
2022-12-14T20:05:52.048Z,70.52
2022-12-14T20:08:19.650Z,70.82
2022-12-14T20:10:47.286Z,71.21
2022-12-14T20:13:15.188Z,71.71
2022-12-14T20:15:49.782Z,72.35
2022-12-14T20:18:17.108Z,71.80
2022-12-14T20:20:44.508Z,72.65
2022-12-14T20:23:18.056Z,73.25
2022-12-14T20:25:45.364Z,73.50
2022-12-14T20:28:12.656Z,73.75
2022-12-14T20:30:46.058Z,73.29
2022-12-14T20:33:14.060Z,74.61
2022-12-14T20:35:41.264Z,74.13
2022-12-14T20:38:08.404Z,74.25
2022-12-14T20:40:38.753Z,74.71
2022-12-14T20:43:07.317Z,74.60
2022-12-14T20:45:44.165Z,75.22
2022-12-14T20:48:11.660Z,76.03
2022-12-14T20:50:41.616Z,76.37
2022-12-14T20:53:09.110Z,76.11
2022-12-14T20:55:36.737Z,76.00
2022-12-14T20:58:03.697Z,76.59
2022-12-14T21:00:30.864Z,77.27
2022-12-14T21:02:58.061Z,77.41
2022-12-14T21:05:25.320Z,77.49
2022-12-14T21:07:52.378Z,77.29
2022-12-14T21:10:19.378Z,77.44
2022-12-14T21:12:49.063Z,77.74
2022-12-14T21:15:16.119Z,78.45
2022-12-14T21:17:43.209Z,79.50
2022-12-14T21:20:11.499Z,79.48
2022-12-14T21:22:38.589Z,79.34
2022-12-14T21:25:07.140Z,79.74
2022-12-14T21:27:38.466Z,79.41
2022-12-14T21:30:11.404Z,80.68
2022-12-14T21:32:39.385Z,81.18
2022-12-14T21:35:07.121Z,80.94
2022-12-14T21:37:36.465Z,80.65
2022-12-14T21:40:04.215Z,81.17
2022-12-14T21:42:31.326Z,79.77
2022-12-14T21:44:58.659Z,80.60
2022-12-14T21:47:29.095Z,80.62
2022-12-14T21:49:56.937Z,80.69
2022-12-14T21:52:27.360Z,80.81
2022-12-14T21:54:54.648Z,80.47
2022-12-14T21:57:49.605Z,80.01
2022-12-14T22:00:17.952Z,80.03
2022-12-14T22:02:45.021Z,80.92
2022-12-14T22:05:12.189Z,80.99
2022-12-14T22:07:39.199Z,80.55
2022-12-14T22:10:06.762Z,80.18
2022-12-14T22:12:33.801Z,80.45
2022-12-14T22:15:01.546Z,80.48
2022-12-14T22:17:28.679Z,80.49
2022-12-14T22:19:55.908Z,79.95
2022-12-14T22:22:23.196Z,80.19
2022-12-14T22:24:51.268Z,80.37
2022-12-14T22:27:19.656Z,80.31
2022-12-14T22:29:46.885Z,81.30
2022-12-14T22:32:14.896Z,80.50
2022-12-14T22:34:42.261Z,81.20
2022-12-14T22:37:09.235Z,81.39
2022-12-14T22:39:36.205Z,81.65
2022-12-14T22:42:03.264Z,81.94
2022-12-14T22:44:30.213Z,81.68
2022-12-14T22:46:57.776Z,82.56
2022-12-14T22:49:24.830Z,82.10
2022-12-14T22:51:52.043Z,81.86
2022-12-14T22:54:23.703Z,81.50
2022-12-14T22:57:04.220Z,81.82
2022-12-14T22:59:43.214Z,82.92
2022-12-14T23:02:10.732Z,82.54
2022-12-14T23:04:38.859Z,82.12
2022-12-14T23:07:06.569Z,83.20
2022-12-14T23:09:52.255Z,83.32
2022-12-14T23:12:38.390Z,83.71
2022-12-14T23:15:24.697Z,84.23
2022-12-14T23:18:19.059Z,84.00
2022-12-14T23:21:04.571Z,84.28
2022-12-14T23:23:50.127Z,83.77
2022-12-14T23:26:35.721Z,83.17
2022-12-14T23:29:21.483Z,83.40
2022-12-14T23:32:07.453Z,82.92
2022-12-14T23:34:52.902Z,82.59
2022-12-14T23:37:38.348Z,82.76
2022-12-14T23:40:24.682Z,83.35
2022-12-14T23:43:10.082Z,83.59
2022-12-14T23:45:55.834Z,83.19
2022-12-14T23:48:41.285Z,83.09
2022-12-14T23:51:27.078Z,83.01
2022-12-14T23:54:12.801Z,83.10
2022-12-14T23:56:58.682Z,82.48
2022-12-14T23:59:44.239Z,83.55
